Time;durP1;ratioP1;P1;durP2;ratioP2;P2;SDS_P1;SDS_P2;PMS_P1;PMS_P2;Temp;Humidity;BMP_temperature;BMP_pressure;BME280_temperature;BME280_humidity;BME280_pressure;Samples;Min_cycle;Max_cycle;Signal;HPM_P1;HPM_P2
2023/03/29 00:01:40;;;;;;;0.10;0.10;;;6.40;1.00;;;;;;5057652;28;20045;-89
2023/03/29 00:04:09;;;;;;;0.00;0.00;;;6.20;1.00;;;;;;5039655;28;20056;-88
2023/03/29 00:06:35;;;;;;;0.00;0.00;;;6.20;1.00;;;;;;5038636;28;20045;-88
2023/03/29 00:09:04;;;;;;;0.00;0.00;;;6.20;1.00;;;;;;5054555;28;20132;-88
2023/03/29 00:11:30;;;;;;;0.00;0.00;;;6.20;1.00;;;;;;5038328;28;20526;-88
2023/03/29 00:14:01;;;;;;;0.00;0.00;;;6.20;1.00;;;;;;5054657;28;20053;-88
2023/03/29 00:16:29;;;;;;;0.00;0.00;;;6.20;1.00;;;;;;5038343;28;20064;-88
2023/03/29 00:18:58;;;;;;;0.40;0.40;;;6.20;3.30;;;;;;5053937;28;20057;-88
2023/03/29 00:21:26;;;;;;;0.10;0.10;;;6.10;3.40;;;;;;5037086;28;20049;-89
2023/03/29 00:23:52;;;;;;;0.00;0.00;;;6.20;1.90;;;;;;5053536;28;20079;-88
2023/03/29 00:26:20;;;;;;;0.15;0.15;;;6.10;1.00;;;;;;5053644;28;20041;-88
2023/03/29 00:28:56;;;;;;;0.00;0.00;;;6.10;1.00;;;;;;5053382;28;20127;-88
2023/03/29 00:31:24;;;;;;;0.00;0.00;;;6.10;3.60;;;;;;5037824;28;20057;-89
2023/03/29 00:33:56;;;;;;;0.22;0.10;;;5.90;8.10;;;;;;5055428;28;20049;-88
2023/03/29 00:36:29;;;;;;;0.10;0.10;;;6.10;18.30;;;;;;5057619;28;20052;-88
2023/03/29 00:38:55;;;;;;;0.00;0.00;;;6.10;18.70;;;;;;5041004;28;20052;-87
2023/03/29 00:41:26;;;;;;;0.00;0.00;;;6.00;15.40;;;;;;5039814;28;20520;-88
2023/03/29 00:44:03;;;;;;;0.00;0.00;;;6.30;23.10;;;;;;5040125;28;20164;-88
2023/03/29 00:46:33;;;;;;;0.00;0.00;;;6.10;30.80;;;;;;5039336;28;20136;-88
2023/03/29 00:49:08;;;;;;;0.00;0.00;;;6.10;22.20;;;;;;5056551;28;20049;-88
2023/03/29 00:51:37;;;;;;;0.00;0.00;;;6.00;18.50;;;;;;5040323;28;20060;-88
2023/03/29 00:54:09;;;;;;;0.00;0.00;;;6.00;26.50;;;;;;5039655;28;20202;-88
2023/03/29 00:56:42;;;;;;;0.00;0.00;;;6.00;20.30;;;;;;5057191;28;20099;-88
2023/03/29 00:59:15;;;;;;;1.20;0.20;;;6.20;26.40;;;;;;5057259;28;20131;-87
2023/03/29 01:01:54;;;;;;;0.28;0.28;;;6.00;26.20;;;;;;5057410;28;20187;-87
2023/03/29 01:04:51;;;;;;;0.00;0.00;;;6.00;25.90;;;;;;5056881;28;20045;-88
2023/03/29 01:07:28;;;;;;;0.00;0.00;;;6.00;25.20;;;;;;5033280;28;20405;-87
2023/03/29 01:10:07;;;;;;;0.00;0.00;;;5.90;26.40;;;;;;5040900;28;20106;-87
2023/03/29 01:12:45;;;;;;;0.00;0.00;;;5.90;31.20;;;;;;5056090;28;20107;-87
2023/03/29 01:15:17;;;;;;;0.17;0.17;;;6.00;20.80;;;;;;5038946;28;20143;-87
2023/03/29 01:17:48;;;;;;;0.00;0.00;;;5.90;24.30;;;;;;5039094;28;20045;-87
2023/03/29 01:20:23;;;;;;;0.00;0.00;;;6.00;27.90;;;;;;5038704;28;20056;-87
2023/03/29 01:23:12;;;;;;;0.00;0.00;;;6.00;25.90;;;;;;5040300;28;20144;-88
2023/03/29 01:25:52;;;;;;;0.10;0.08;;;5.90;26.70;;;;;;5040014;28;20076;-87
2023/03/29 01:28:22;;;;;;;0.00;0.00;;;6.00;27.50;;;;;;5055980;28;20118;-88
2023/03/29 01:30:55;;;;;;;1.52;0.50;;;5.90;32.40;;;;;;5039296;28;20154;-88
2023/03/29 01:33:29;;;;;;;1.65;0.88;;;5.90;21.50;;;;;;5055157;28;20045;-87
2023/03/29 01:36:13;;;;;;;0.10;0.10;;;5.90;30.70;;;;;;5055192;28;20051;-88
2023/03/29 01:38:45;;;;;;;0.00;0.00;;;5.90;24.50;;;;;;5056228;28;20048;-87
2023/03/29 01:41:13;;;;;;;0.00;0.00;;;5.90;36.40;;;;;;5055689;28;20063;-88
2023/03/29 01:44:04;;;;;;;0.00;0.00;;;5.90;35.60;;;;;;5056021;28;20110;-88
2023/03/29 01:46:45;;;;;;;0.05;0.00;;;5.90;31.70;;;;;;5038236;28;20052;-87
2023/03/29 01:49:21;;;;;;;0.30;0.28;;;5.90;34.90;;;;;;5056369;28;20083;-88
2023/03/29 01:52:04;;;;;;;0.40;0.40;;;5.90;25.90;;;;;;5038951;28;20049;-88
2023/03/29 01:54:55;;;;;;;0.22;0.00;;;5.90;26.90;;;;;;5055936;28;20052;-88
2023/03/29 01:57:24;;;;;;;0.00;0.00;;;5.90;30.00;;;;;;5056575;28;20044;-88
2023/03/29 01:59:51;;;;;;;0.00;0.00;;;5.90;33.80;;;;;;5055014;28;20199;-88
2023/03/29 02:02:21;;;;;;;0.00;0.00;;;5.90;30.70;;;;;;5037995;28;20049;-88
2023/03/29 02:04:54;;;;;;;0.80;0.10;;;6.30;32.30;;;;;;5054522;28;20399;-88
2023/03/29 02:07:27;;;;;;;0.08;0.05;;;6.00;37.40;;;;;;5038200;28;20555;-88
2023/03/29 02:09:56;;;;;;;0.57;0.10;;;5.90;38.60;;;;;;5037922;28;20136;-88
2023/03/29 02:12:22;;;;;;;0.25;0.10;;;5.90;31.50;;;;;;5054696;28;20048;-88
2023/03/29 02:14:55;;;;;;;0.30;0.20;;;5.90;33.00;;;;;;5038795;28;20045;-88
2023/03/29 02:17:26;;;;;;;0.03;0.00;;;6.00;35.40;;;;;;5054563;28;20080;-88
2023/03/29 02:20:19;;;;;;;0.57;0.10;;;6.20;39.40;;;;;;5037586;28;20083;-88
2023/03/29 02:22:45;;;;;;;0.10;0.00;;;5.90;38.00;;;;;;5054606;28;20080;-87
2023/03/29 02:25:14;;;;;;;0.40;0.40;;;5.90;43.90;;;;;;5038668;28;20057;-88
2023/03/29 02:27:40;;;;;;;2.28;0.10;;;5.90;37.30;;;;;;5038097;28;20055;-89
2023/03/29 02:30:10;;;;;;;0.00;0.00;;;5.90;38.90;;;;;;5038226;28;20044;-87
2023/03/29 02:32:44;;;;;;;0.98;0.52;;;5.90;41.30;;;;;;5038417;28;20135;-87
2023/03/29 02:35:20;;;;;;;0.22;0.08;;;5.90;39.20;;;;;;5039111;28;20053;-88
2023/03/29 02:37:53;;;;;;;0.00;0.00;;;5.90;44.00;;;;;;5055082;28;20045;-88
2023/03/29 02:40:24;;;;;;;5.93;0.43;;;6.10;38.90;;;;;;5055476;28;20370;-88
2023/03/29 02:42:54;;;;;;;0.22;0.22;;;5.90;38.50;;;;;;5055646;28;20473;-87
2023/03/29 02:45:21;;;;;;;0.10;0.10;;;5.90;38.80;;;;;;5037122;28;20049;-87
2023/03/29 02:47:58;;;;;;;0.00;0.00;;;6.00;44.00;;;;;;5055176;28;20044;-88
2023/03/29 02:50:31;;;;;;;0.28;0.28;;;6.00;46.60;;;;;;5054866;28;20105;-89
2023/03/29 02:53:03;;;;;;;0.13;0.13;;;5.90;39.60;;;;;;5055121;28;20115;-88
2023/03/29 02:55:33;;;;;;;0.35;0.22;;;6.40;43.00;;;;;;5054389;28;20049;-88
2023/03/29 02:58:06;;;;;;;0.43;0.28;;;6.00;44.80;;;;;;5037635;28;20466;-88
2023/03/29 03:00:37;;;;;;;1.27;0.43;;;6.00;44.60;;;;;;5038346;28;20127;-88
2023/03/29 03:03:08;;;;;;;0.10;0.08;;;6.00;49.10;;;;;;5037753;28;20044;-88
2023/03/29 03:05:37;;;;;;;0.73;0.57;;;6.00;41.60;;;;;;5038336;28;20384;-88
2023/03/29 03:08:07;;;;;;;0.25;0.15;;;6.10;41.60;;;;;;5037437;28;20477;-88
2023/03/29 03:10:41;;;;;;;0.75;0.10;;;6.10;39.40;;;;;;5037346;28;20045;-89
2023/03/29 03:13:16;;;;;;;0.00;0.00;;;6.00;41.10;;;;;;5055495;28;20056;-88
2023/03/29 03:15:51;;;;;;;0.17;0.10;;;6.10;42.10;;;;;;5040218;28;20052;-88
2023/03/29 03:18:17;;;;;;;;;;;6.00;43.30;;;;;;5040912;28;20056;-87
2023/03/29 03:20:45;;;;;;;2.75;0.45;;;6.10;36.90;;;;;;5040543;28;20356;-88
2023/03/29 03:23:14;;;;;;;0.20;0.10;;;6.10;42.00;;;;;;5044732;28;20053;-88
2023/03/29 03:25:39;;;;;;;0.80;0.60;;;6.10;45.30;;;;;;5062531;28;20045;-88
2023/03/29 03:28:07;;;;;;;0.08;0.08;;;6.10;43.00;;;;;;5040786;28;20049;-88
2023/03/29 03:30:33;;;;;;;0.15;0.15;;;6.10;45.20;;;;;;5037103;28;20052;-88
2023/03/29 03:32:59;;;;;;;0.10;0.10;;;6.10;44.10;;;;;;5037423;28;20389;-88
2023/03/29 03:35:25;;;;;;;1.05;0.17;;;6.10;47.00;;;;;;5036242;28;20063;-88
2023/03/29 03:37:58;;;;;;;0.10;0.10;;;6.10;46.50;;;;;;5053197;28;20040;-88
2023/03/29 03:40:26;;;;;;;0.20;0.20;;;6.10;45.50;;;;;;5037534;28;20049;-88
2023/03/29 03:42:54;;;;;;;0.20;0.20;;;6.10;44.10;;;;;;5054435;28;20385;-89
2023/03/29 03:45:20;;;;;;;2.03;0.20;;;6.10;47.80;;;;;;5036447;28;20103;-88
2023/03/29 03:47:49;;;;;;;3.20;1.65;;;6.10;45.80;;;;;;5053390;28;20053;-88
2023/03/29 03:50:17;;;;;;;0.10;0.10;;;6.20;39.80;;;;;;5036919;28;20080;-88
2023/03/29 03:52:43;;;;;;;0.20;0.20;;;6.00;44.60;;;;;;5053251;28;20059;-88
2023/03/29 03:55:10;;;;;;;0.68;0.68;;;6.20;46.20;;;;;;5052883;28;20473;-88
2023/03/29 03:57:39;;;;;;;0.32;0.10;;;6.20;39.20;;;;;;5053993;28;20053;-88
2023/03/29 04:00:18;;;;;;;0.47;0.47;;;6.10;44.10;;;;;;5053242;28;20094;-89
2023/03/29 04:02:47;;;;;;;0.30;0.30;;;6.20;45.70;;;;;;5052740;28;20047;-88
2023/03/29 04:05:13;;;;;;;0.25;0.25;;;6.20;41.50;;;;;;5052611;28;20114;-88
2023/03/29 04:07:41;;;;;;;0.30;0.10;;;6.20;49.30;;;;;;5052753;28;20041;-88
2023/03/29 04:10:08;;;;;;;0.10;0.10;;;6.40;44.40;;;;;;5056447;28;20045;-87
2023/03/29 04:12:35;;;;;;;0.13;0.10;;;6.30;43.60;;;;;;5040848;28;20140;-87
2023/03/29 04:15:02;;;;;;;0.10;0.00;;;6.30;46.60;;;;;;5040191;28;20045;-88
2023/03/29 04:17:28;;;;;;;3.25;0.60;;;6.20;44.20;;;;;;5056659;28;20045;-88
2023/03/29 04:19:57;;;;;;;0.10;0.10;;;6.20;49.00;;;;;;5040947;28;20057;-88
2023/03/29 04:22:29;;;;;;;0.00;0.00;;;6.20;53.50;;;;;;5040774;28;20098;-88
2023/03/29 04:24:55;;;;;;;1.65;0.30;;;6.20;50.60;;;;;;5057464;28;20045;-88
2023/03/29 04:27:22;;;;;;;3.53;0.70;;;6.20;47.80;;;;;;5057735;28;20098;-88
2023/03/29 04:29:51;;;;;;;0.55;0.35;;;6.30;53.50;;;;;;5040911;28;20047;-89
2023/03/29 04:32:16;;;;;;;0.65;0.10;;;6.20;58.90;;;;;;5040467;28;20048;-88
2023/03/29 04:34:42;;;;;;;0.30;0.10;;;6.20;55.40;;;;;;5041494;28;20045;-88
2023/03/29 04:37:13;;;;;;;0.00;0.00;;;6.40;58.00;;;;;;5040974;28;20091;-89
2023/03/29 04:39:38;;;;;;;0.30;0.30;;;6.20;59.70;;;;;;5057938;28;20051;-89
2023/03/29 04:42:05;;;;;;;0.25;0.05;;;6.20;64.50;;;;;;5040900;28;20065;-89
2023/03/29 04:44:35;;;;;;;0.00;0.00;;;6.20;68.10;;;;;;5056770;28;20106;-88
2023/03/29 04:47:03;;;;;;;2.42;0.32;;;6.20;71.00;;;;;;5040023;28;20099;-88
2023/03/29 04:49:30;;;;;;;0.30;0.00;;;6.20;71.80;;;;;;5040288;28;20071;-89
2023/03/29 04:51:55;;;;;;;0.47;0.03;;;6.20;71.00;;;;;;5040648;28;20041;-89
2023/03/29 04:54:24;;;;;;;0.85;0.00;;;6.20;73.10;;;;;;5056737;28;20090;-89
2023/03/29 04:56:55;;;;;;;0.30;0.10;;;6.20;63.40;;;;;;5056384;28;20131;-89
2023/03/29 04:59:23;;;;;;;0.47;0.30;;;6.10;73.40;;;;;;5040503;28;20053;-89
2023/03/29 05:01:49;;;;;;;0.10;0.08;;;6.40;76.60;;;;;;5040415;28;20052;-89
2023/03/29 05:04:15;;;;;;;0.00;0.00;;;6.20;76.30;;;;;;5044187;28;20052;-88
2023/03/29 05:06:41;;;;;;;0.52;0.00;;;6.10;80.90;;;;;;5056894;28;20084;-89
2023/03/29 05:09:14;;;;;;;0.43;0.43;;;6.10;84.80;;;;;;5040432;28;20473;-89
2023/03/29 05:11:45;;;;;;;0.08;0.00;;;6.20;82.00;;;;;;5040987;28;20072;-89
2023/03/29 05:14:11;;;;;;;0.90;0.65;;;6.10;86.40;;;;;;5056376;28;20049;-89
2023/03/29 05:16:37;;;;;;;2.72;0.32;;;6.10;86.50;;;;;;5056578;28;20132;-89
2023/03/29 05:19:10;;;;;;;0.00;0.00;;;6.20;88.80;;;;;;5039699;28;20644;-89
2023/03/29 05:21:41;;;;;;;0.00;0.00;;;6.10;87.90;;;;;;5038607;28;20492;-89
2023/03/29 05:24:11;;;;;;;0.38;0.08;;;6.10;90.90;;;;;;5039578;28;20049;-88
2023/03/29 05:26:36;;;;;;;0.55;0.20;;;6.10;92.10;;;;;;5055786;28;20508;-88
2023/03/29 05:29:07;;;;;;;0.15;0.15;;;6.10;90.80;;;;;;5039582;28;20037;-89
2023/03/29 05:31:38;;;;;;;1.00;0.00;;;6.10;93.40;;;;;;5056453;28;20147;-89
2023/03/29 05:34:06;;;;;;;0.22;0.13;;;6.10;94.50;;;;;;5040308;28;20049;-88
2023/03/29 05:36:37;;;;;;;0.77;0.10;;;6.10;94.80;;;;;;5022962;28;20056;-88
2023/03/29 05:39:03;;;;;;;0.63;0.20;;;6.10;94.40;;;;;;5039374;28;20095;-89
2023/03/29 05:41:32;;;;;;;0.00;0.00;;;6.10;94.00;;;;;;5055790;28;20048;-88
2023/03/29 05:44:00;;;;;;;0.80;0.30;;;6.10;95.00;;;;;;5056652;28;20132;-89
2023/03/29 05:46:31;;;;;;;0.00;0.00;;;6.40;94.00;;;;;;5039243;28;20087;-89
2023/03/29 05:49:00;;;;;;;0.00;0.00;;;6.10;92.80;;;;;;5040446;28;20087;-89
2023/03/29 05:51:26;;;;;;;0.00;0.00;;;6.10;95.70;;;;;;5055641;28;20048;-88
2023/03/29 05:53:55;;;;;;;0.20;0.08;;;6.10;96.60;;;;;;5039375;28;20045;-88
2023/03/29 05:56:23;;;;;;;0.22;0.22;;;6.20;96.30;;;;;;5055200;28;20135;-86
2023/03/29 05:58:53;;;;;;;0.00;0.00;;;6.10;95.50;;;;;;5037672;28;20102;-87
2023/03/29 06:01:21;;;;;;;1.45;0.15;;;6.10;95.30;;;;;;5054705;28;20052;-87
2023/03/29 06:03:47;;;;;;;0.00;0.00;;;6.10;96.60;;;;;;5022128;28;20041;-86
2023/03/29 06:06:16;;;;;;;0.00;0.00;;;6.00;95.90;;;;;;5055676;28;20045;-88
2023/03/29 06:08:45;;;;;;;1.55;0.75;;;6.10;96.70;;;;;;5038140;28;20052;-86
2023/03/29 06:11:12;;;;;;;0.00;0.00;;;6.20;97.80;;;;;;5038184;28;20091;-87
2023/03/29 06:13:41;;;;;;;0.00;0.00;;;6.20;98.10;;;;;;5055570;28;20056;-87
2023/03/29 06:16:12;;;;;;;0.05;0.00;;;6.20;96.10;;;;;;5054371;28;20503;-88
2023/03/29 06:18:41;;;;;;;0.00;0.00;;;6.10;97.50;;;;;;5053995;28;20072;-87
2023/03/29 06:21:08;;;;;;;0.00;0.00;;;6.20;98.70;;;;;;5037957;28;20036;-87
2023/03/29 06:23:35;;;;;;;0.25;0.15;;;6.30;98.50;;;;;;5053301;28;20160;-88
2023/03/29 06:26:06;;;;;;;0.25;0.25;;;6.30;96.70;;;;;;5037553;28;20049;-87
2023/03/29 06:28:40;;;;;;;0.00;0.00;;;6.20;96.80;;;;;;5054425;28;20130;-88
2023/03/29 06:31:08;;;;;;;0.30;0.30;;;6.30;96.90;;;;;;5054448;28;20060;-87
2023/03/29 06:33:42;;;;;;;0.00;0.00;;;6.30;96.80;;;;;;5037878;28;20044;-87
2023/03/29 06:36:09;;;;;;;0.00;0.00;;;6.40;97.50;;;;;;5038527;28;20424;-87
2023/03/29 06:38:35;;;;;;;0.00;0.00;;;6.40;97.20;;;;;;5054607;28;20049;-88
2023/03/29 06:41:06;;;;;;;0.85;0.32;;;6.40;94.00;;;;;;5055045;28;20111;-87
2023/03/29 06:43:35;;;;;;;0.10;0.10;;;6.40;95.50;;;;;;5038166;28;20047;-86
2023/03/29 06:46:01;;;;;;;0.38;0.10;;;6.50;95.40;;;;;;5053413;28;20049;-85
2023/03/29 06:48:27;;;;;;;2.13;0.45;;;6.50;95.80;;;;;;5053123;28;20049;-86
2023/03/29 06:50:53;;;;;;;0.03;0.00;;;6.50;97.00;;;;;;5053542;28;20103;-86
2023/03/29 06:53:22;;;;;;;0.10;0.10;;;6.50;96.10;;;;;;5053338;28;20048;-86
2023/03/29 06:55:50;;;;;;;0.00;0.00;;;6.60;96.00;;;;;;5054354;28;20041;-84
2023/03/29 06:58:16;;;;;;;0.10;0.10;;;6.60;93.70;;;;;;5036813;28;20401;-89
2023/03/29 07:00:44;;;;;;;0.43;0.43;;;6.60;94.50;;;;;;5037545;28;20045;-85
2023/03/29 07:03:22;;;;;;;;;;;;;;;;;;;;;
2023/03/29 07:05:51;;;;;;;0.00;0.00;;;6.70;94.70;;;;;;5053410;28;20132;-86
2023/03/29 07:08:19;;;;;;;0.15;0.10;;;6.80;92.40;;;;;;5053668;28;20045;-85
2023/03/29 07:10:47;;;;;;;0.30;0.30;;;6.80;93.30;;;;;;5037066;28;20045;-87
2023/03/29 07:13:14;;;;;;;0.00;0.00;;;6.80;94.50;;;;;;5054712;28;20071;-87
2023/03/29 07:15:42;;;;;;;0.30;0.28;;;6.80;93.70;;;;;;5037023;28;20060;-87
2023/03/29 07:18:18;;;;;;;;;;;;;;;;;;;;;
2023/03/29 07:20:46;;;;;;;0.00;0.00;;;6.90;94.60;;;;;;5039306;28;20136;-86
2023/03/29 07:23:12;;;;;;;0.45;0.10;;;6.90;92.40;;;;;;5053424;28;20128;-85
2023/03/29 07:25:38;;;;;;;0.17;0.17;;;6.90;93.00;;;;;;5020816;28;20091;-86
2023/03/29 07:28:05;;;;;;;0.00;0.00;;;6.90;91.70;;;;;;5053661;28;20079;-85
2023/03/29 07:30:31;;;;;;;0.00;0.00;;;7.00;93.10;;;;;;5053423;28;20132;-85
2023/03/29 07:32:57;;;;;;;0.73;0.30;;;7.00;92.30;;;;;;5054103;28;20116;-85
2023/03/29 07:35:25;;;;;;;0.20;0.20;;;7.00;92.50;;;;;;5036912;28;20052;-86
2023/03/29 07:37:51;;;;;;;1.20;0.20;;;7.00;91.30;;;;;;5036774;28;20045;-86
2023/03/29 07:40:22;;;;;;;0.70;0.25;;;7.10;92.30;;;;;;5020469;28;20045;-86
2023/03/29 07:42:52;;;;;;;0.03;0.00;;;7.10;91.90;;;;;;5036987;28;20052;-87
2023/03/29 07:45:20;;;;;;;1.15;0.63;;;7.20;91.70;;;;;;5040831;28;20107;-86
2023/03/29 07:47:47;;;;;;;0.00;0.00;;;7.20;91.70;;;;;;5057413;28;20127;-85
2023/03/29 07:50:14;;;;;;;0.25;0.25;;;7.10;91.30;;;;;;5040629;28;20049;-87
2023/03/29 07:52:40;;;;;;;0.05;0.05;;;7.20;92.00;;;;;;5041784;28;20084;-86
2023/03/29 07:55:08;;;;;;;0.00;0.00;;;7.30;90.70;;;;;;5057599;28;20103;-87
2023/03/29 07:57:34;;;;;;;0.10;0.10;;;7.30;89.20;;;;;;5040702;28;20061;-87
2023/03/29 08:00:09;;;;;;;0.00;0.00;;;7.30;89.60;;;;;;5040624;28;20053;-87
2023/03/29 08:02:38;;;;;;;0.20;0.20;;;7.30;90.10;;;;;;5039801;28;20049;-87
2023/03/29 08:05:04;;;;;;;0.10;0.00;;;7.40;89.70;;;;;;5007726;28;20405;-87
2023/03/29 08:07:30;;;;;;;2.40;0.13;;;7.40;89.40;;;;;;5023783;28;20128;-87
2023/03/29 08:09:56;;;;;;;0.00;0.00;;;7.20;90.10;;;;;;5007118;28;20540;-86
2023/03/29 08:12:21;;;;;;;0.00;0.00;;;7.50;89.60;;;;;;5023628;28;20489;-86
2023/03/29 08:14:47;;;;;;;0.00;0.00;;;7.50;85.20;;;;;;5040353;28;20064;-86
2023/03/29 08:17:13;;;;;;;0.10;0.00;;;7.60;87.00;;;;;;5040248;28;20089;-86
2023/03/29 08:19:42;;;;;;;0.15;0.15;;;7.60;85.00;;;;;;5040585;28;20045;-86
2023/03/29 08:22:08;;;;;;;0.17;0.17;;;7.60;85.10;;;;;;5025229;28;20049;-86
2023/03/29 08:24:34;;;;;;;0.00;0.00;;;7.70;85.80;;;;;;5039975;28;20053;-87
2023/03/29 08:27:05;;;;;;;0.32;0.22;;;7.70;86.00;;;;;;5041703;28;20056;-87
2023/03/29 08:29:36;;;;;;;0.00;0.00;;;7.80;85.70;;;;;;5040539;28;20052;-86
2023/03/29 08:32:03;;;;;;;0.00;0.00;;;7.80;82.50;;;;;;5024770;28;20333;-88
2023/03/29 08:34:34;;;;;;;0.35;0.35;;;7.90;80.70;;;;;;5041705;28;20045;-87
2023/03/29 08:37:04;;;;;;;0.00;0.00;;;7.90;78.30;;;;;;5043051;28;20500;-89
2023/03/29 08:39:31;;;;;;;0.10;0.10;;;7.90;79.30;;;;;;5043299;28;20056;-87
2023/03/29 08:42:06;;;;;;;0.43;0.20;;;8.00;76.40;;;;;;5031463;28;20064;-86
2023/03/29 08:44:46;;;;;;;;;;;8.10;75.00;;;;;;5057381;28;20069;-86
2023/03/29 08:47:40;;;;;;;2.42;0.60;;;8.10;72.40;;;;;;5071613;28;19931;-87
2023/03/29 08:50:09;;;;;;;0.15;0.05;;;8.20;73.90;;;;;;5040425;28;20084;-87
2023/03/29 08:52:39;;;;;;;0.10;0.00;;;8.30;72.00;;;;;;5040324;28;20045;-86
2023/03/29 08:55:18;;;;;;;0.00;0.00;;;8.30;70.70;;;;;;5056551;28;20132;-87
2023/03/29 08:57:47;;;;;;;0.00;0.00;;;8.40;70.20;;;;;;5057126;28;20053;-86
2023/03/29 09:00:50;;;;;;;0.80;0.30;;;8.50;67.90;;;;;;5056265;28;20056;-86
2023/03/29 09:03:30;;;;;;;0.00;0.00;;;8.50;64.20;;;;;;5056166;28;20131;-86
2023/03/29 09:06:05;;;;;;;0.43;0.43;;;8.60;62.50;;;;;;5056534;28;20047;-87
2023/03/29 09:08:33;;;;;;;0.00;0.00;;;8.70;58.10;;;;;;5056595;28;20427;-87
2023/03/29 09:11:22;;;;;;;0.00;0.00;;;8.70;59.20;;;;;;5056702;28;20049;-86
2023/03/29 09:14:23;;;;;;;0.10;0.10;;;8.80;60.20;;;;;;5022183;28;20092;-87
2023/03/29 09:17:23;;;;;;;0.25;0.25;;;8.90;56.60;;;;;;5039803;28;20476;-87
2023/03/29 09:20:16;;;;;;;0.00;0.00;;;9.00;45.40;;;;;;5058386;28;20053;-85
2023/03/29 09:23:10;;;;;;;0.30;0.30;;;9.10;45.00;;;;;;5056653;28;20049;-86
2023/03/29 09:26:18;;;;;;;0.00;0.00;;;9.10;41.40;;;;;;5056825;28;20381;-87
2023/03/29 09:29:07;;;;;;;0.00;0.00;;;9.20;44.70;;;;;;5038450;28;20053;-87
2023/03/29 09:31:44;;;;;;;1.90;0.30;;;9.30;46.60;;;;;;5056103;28;20538;-87
2023/03/29 09:34:14;;;;;;;0.00;0.00;;;9.40;42.80;;;;;;5055611;28;20080;-87
2023/03/29 09:36:55;;;;;;;0.17;0.10;;;9.50;35.30;;;;;;5055697;28;20041;-87
2023/03/29 09:39:22;;;;;;;0.00;0.00;;;9.60;32.50;;;;;;5038814;28;20469;-87
2023/03/29 09:42:08;;;;;;;0.00;0.00;;;9.60;30.40;;;;;;5055205;28;20055;-86
2023/03/29 09:44:45;;;;;;;5.38;1.23;;;9.60;24.30;;;;;;5038656;28;20088;-86
2023/03/29 09:47:34;;;;;;;0.00;0.00;;;9.70;23.90;;;;;;5038845;28;20465;-86
2023/03/29 09:50:27;;;;;;;1.10;0.60;;;9.70;23.20;;;;;;5038281;28;20128;-86
2023/03/29 09:52:56;;;;;;;0.43;0.20;;;9.80;23.70;;;;;;5054836;28;20515;-87
2023/03/29 09:55:29;;;;;;;1.45;0.20;;;9.80;23.50;;;;;;5038457;28;20048;-87
2023/03/29 09:58:01;;;;;;;1.08;0.65;;;9.90;25.50;;;;;;5055198;28;20048;-87
2023/03/29 10:00:30;;;;;;;0.05;0.00;;;10.00;21.00;;;;;;5054605;28;20041;-87
2023/03/29 10:02:59;;;;;;;0.10;0.10;;;10.10;22.40;;;;;;5038578;28;20051;-87
2023/03/29 10:05:28;;;;;;;1.00;0.65;;;10.00;23.30;;;;;;5021623;28;20041;-88
2023/03/29 10:07:58;;;;;;;0.15;0.08;;;10.10;20.80;;;;;;5037667;28;20099;-88
2023/03/29 10:10:30;;;;;;;0.00;0.00;;;10.10;22.00;;;;;;5038697;28;20063;-87
2023/03/29 10:13:00;;;;;;;0.20;0.00;;;10.10;23.40;;;;;;5038227;28;20036;-89
2023/03/29 10:15:28;;;;;;;0.25;0.20;;;10.20;25.10;;;;;;5037763;28;20079;-87
2023/03/29 10:18:05;;;;;;;0.00;0.00;;;10.10;29.80;;;;;;5054276;28;20477;-82
2023/03/29 10:20:37;;;;;;;0.00;0.00;;;10.20;25.90;;;;;;5053399;28;20519;-81
2023/03/29 10:23:06;;;;;;;0.00;0.00;;;10.30;37.00;;;;;;5054043;28;20056;-81
2023/03/29 10:25:36;;;;;;;0.00;0.00;;;10.40;26.50;;;;;;5054678;28;20048;-82
2023/03/29 10:28:06;;;;;;;0.00;0.00;;;10.40;27.20;;;;;;5054641;28;20114;-81
2023/03/29 10:30:36;;;;;;;0.00;0.00;;;10.50;22.80;;;;;;5053352;28;20074;-80
2023/03/29 10:33:02;;;;;;;0.00;0.00;;;10.60;21.40;;;;;;5054636;28;20389;-81
2023/03/29 10:35:33;;;;;;;0.15;0.00;;;10.60;17.80;;;;;;5055230;28;20048;-82
2023/03/29 10:38:02;;;;;;;0.10;0.10;;;10.60;20.10;;;;;;5037663;28;20049;-81
2023/03/29 10:40:40;;;;;;;0.00;0.00;;;10.70;19.40;;;;;;5053373;28;20051;-81
2023/03/29 10:43:20;;;;;;;0.40;0.17;;;10.80;16.40;;;;;;5054384;28;20052;-82
2023/03/29 10:46:07;;;;;;;0.10;0.10;;;10.90;16.80;;;;;;5053712;28;20044;-80
2023/03/29 10:48:34;;;;;;;0.15;0.15;;;11.00;17.00;;;;;;5055083;28;20103;-81
2023/03/29 10:51:02;;;;;;;0.00;0.00;;;11.10;12.60;;;;;;5037012;28;20056;-81
2023/03/29 10:53:32;;;;;;;1.35;0.85;;;11.20;6.30;;;;;;5053034;28;20049;-81
2023/03/29 10:56:26;;;;;;;0.05;0.00;;;11.30;6.90;;;;;;5036582;28;20059;-81
2023/03/29 10:59:04;;;;;;;0.00;0.00;;;11.40;3.20;;;;;;5053362;28;20052;-82
2023/03/29 11:01:56;;;;;;;0.28;0.00;;;11.40;1.30;;;;;;5053250;28;20041;-82
2023/03/29 11:04:44;;;;;;;0.25;0.20;;;11.50;1.60;;;;;;5036396;28;20529;-82
2023/03/29 11:07:34;;;;;;;0.10;0.08;;;11.60;1.00;;;;;;5053042;28;20041;-82
2023/03/29 11:10:24;;;;;;;0.15;0.15;;;11.70;1.00;;;;;;5052708;28;20499;-82
2023/03/29 11:13:17;;;;;;;0.17;0.15;;;11.90;1.00;;;;;;5052856;28;20134;-81
2023/03/29 11:16:08;;;;;;;0.00;0.00;;;12.00;1.00;;;;;;5036814;28;20044;-82
2023/03/29 11:18:49;;;;;;;0.00;0.00;;;12.30;1.00;;;;;;5053224;28;20087;-82
2023/03/29 11:21:51;;;;;;;0.00;0.00;;;12.60;1.00;;;;;;5036311;28;20056;-85
2023/03/29 11:32:19;;;;;;;0.10;0.08;;;13.10;1.00;;;;;;5052305;28;20147;-86
2023/03/29 11:35:03;;;;;;;0.57;0.40;;;13.30;1.00;;;;;;5035532;28;20146;-88
2023/03/29 11:37:42;;;;;;;0.00;0.00;;;13.30;1.00;;;;;;5053631;28;20102;-88
2023/03/29 11:40:20;;;;;;;0.00;0.00;;;13.30;1.00;;;;;;5037167;28;20041;-86
2023/03/29 11:42:49;;;;;;;0.15;0.13;;;13.40;1.00;;;;;;5053822;28;20045;-86
2023/03/29 11:45:44;;;;;;;0.20;0.20;;;13.40;1.00;;;;;;5053597;28;20056;-87
2023/03/29 11:48:20;;;;;;;0.00;0.00;;;13.50;1.00;;;;;;5033686;28;20117;-88
2023/03/29 11:50:52;;;;;;;0.15;0.10;;;13.80;1.00;;;;;;5036222;28;20299;-87
2023/03/29 11:53:28;;;;;;;0.03;0.00;;;14.00;1.00;;;;;;5036941;28;20127;-84
2023/03/29 11:55:55;;;;;;;0.80;0.57;;;14.00;99.90;;;;;;5053998;28;20048;-86
2023/03/29 11:58:29;;;;;;;0.00;0.00;;;14.00;99.90;;;;;;5053272;28;20049;-86
2023/03/29 12:01:03;;;;;;;0.45;0.45;;;14.10;99.90;;;;;;5036527;28;20041;-86
2023/03/29 12:03:46;;;;;;;0.65;0.45;;;14.20;99.90;;;;;;5053384;28;20056;-87
2023/03/29 12:06:39;;;;;;;0.00;0.00;;;14.30;99.90;;;;;;5053325;28;20080;-89
2023/03/29 12:09:25;;;;;;;0.82;0.80;;;14.30;99.90;;;;;;5052718;28;20040;-88
2023/03/29 12:12:03;;;;;;;0.88;0.28;;;14.20;99.90;;;;;;5028558;28;20064;-88
2023/03/29 12:15:01;;;;;;;0.22;0.00;;;14.10;99.90;;;;;;5037358;28;20461;-85
2023/03/29 12:17:32;;;;;;;0.10;0.10;;;14.10;99.90;;;;;;5027550;28;20056;-82
2023/03/29 12:20:22;;;;;;;0.00;0.00;;;14.00;99.90;;;;;;5035780;28;20060;-82
2023/03/29 12:22:49;;;;;;;0.63;0.55;;;13.90;99.90;;;;;;5053204;28;20055;-81
2023/03/29 12:25:20;;;;;;;0.20;0.20;;;13.90;99.90;;;;;;5035194;28;20115;-82
2023/03/29 12:27:55;;;;;;;0.43;0.20;;;13.80;99.90;;;;;;5052040;28;20049;-81
2023/03/29 12:30:39;;;;;;;0.10;0.00;;;13.90;99.90;;;;;;5053648;28;20041;-83
2023/03/29 12:33:06;;;;;;;0.00;0.00;;;13.90;99.90;;;;;;5056956;28;20088;-85
2023/03/29 12:35:45;;;;;;;0.20;0.20;;;13.80;99.90;;;;;;5056628;28;20057;-84
2023/03/29 12:38:11;;;;;;;0.38;0.38;;;13.90;99.90;;;;;;5039904;28;20057;-85
2023/03/29 12:40:44;;;;;;;0.00;0.00;;;14.00;99.90;;;;;;5055852;28;20051;-84
2023/03/29 12:43:20;;;;;;;0.00;0.00;;;14.10;99.90;;;;;;5038850;28;20053;-84
2023/03/29 12:45:47;;;;;;;0.32;0.20;;;14.10;99.90;;;;;;5039126;28;20056;-84
2023/03/29 12:48:17;;;;;;;0.90;0.32;;;14.20;99.90;;;;;;5055536;28;20052;-84
2023/03/29 12:50:50;;;;;;;0.00;0.00;;;14.20;99.90;;;;;;5039289;28;20142;-83
2023/03/29 12:53:46;;;;;;;0.05;0.05;;;14.20;99.90;;;;;;5055429;28;20084;-84
2023/03/29 12:56:12;;;;;;;;;;;14.10;99.90;;;;;;5054574;28;20061;-83
2023/03/29 12:58:38;;;;;;;0.20;0.20;;;14.00;99.90;;;;;;5038777;28;19921;-83
2023/03/29 13:01:05;;;;;;;0.32;0.10;;;14.00;99.90;;;;;;5055354;28;20052;-86
2023/03/29 13:03:47;;;;;;;1.13;0.50;;;14.00;99.90;;;;;;5039045;28;20048;-84
2023/03/29 13:06:25;;;;;;;0.63;0.20;;;13.90;99.90;;;;;;5056147;28;20037;-84
2023/03/29 13:09:00;;;;;;;0.40;0.40;;;13.90;99.90;;;;;;5024315;28;20057;-83
2023/03/29 13:11:28;;;;;;;0.00;0.00;;;13.80;99.90;;;;;;5055628;28;20053;-84
2023/03/29 13:13:54;;;;;;;1.10;0.20;;;13.80;99.90;;;;;;5038213;28;20136;-84
2023/03/29 13:16:29;;;;;;;0.25;0.00;;;13.80;99.90;;;;;;5038033;28;20519;-84
2023/03/29 13:19:02;;;;;;;;;;;13.80;99.90;;;;;;5038069;28;20063;-84
2023/03/29 13:21:47;;;;;;;0.10;0.10;;;13.70;1.00;;;;;;5055228;28;19920;-83
2023/03/29 13:24:36;;;;;;;0.13;0.13;;;13.80;1.00;;;;;;5054799;28;20056;-84
2023/03/29 13:27:30;;;;;;;0.30;0.30;;;13.80;1.00;;;;;;5055388;28;20111;-83
2023/03/29 13:30:16;;;;;;;0.17;0.17;;;14.00;1.00;;;;;;5054569;28;20059;-82
2023/03/29 13:33:11;;;;;;;1.15;0.35;;;14.00;1.00;;;;;;5038838;28;20045;-83
2023/03/29 13:35:46;;;;;;;0.20;0.05;;;14.10;1.00;;;;;;5019125;28;20143;-85
2023/03/29 13:38:21;;;;;;;0.30;0.15;;;14.10;1.00;;;;;;5038577;28;20489;-85